Maximo — WDD9731 — position and weather

sailwx.info

Track history (hours):
 
Tides and Currents Weather Stations Pressure Air Temp Water Temp Dewpoint Dewpoint Depression Visibility Wind Speed Wind Dir Waves Ship Positions

Maximo

Owner: OBERTO, STEPHEN J, SEATTLE, WA. More information available from US FCC via Universal Licensing System and Coast Guard Vessel Documentation Center.

Last reported at 2018-May-06 22:44 UTC. Time now 2018-Jun-19 19:51 UTC.
Position N 54°27' W 130°39'.
Warning: this ship's position is 43 days out of date.

Length 21 m.

Type: Pleasure craft. MMSI: 367315610.

Date/timePositionNaut miles runAvg speedWind from/ knotsBaromVisibWave heightAir tempDewpointWater temp
2018-May-06 22:44N 54°27' W 130°39'2 7.9
2018-May-06 22:29N 54°25' W 130°38'4 8.1
2018-May-06 21:59N 54°22' W 130°35'4 8.1
2018-May-06 21:30N 54°18' W 130°33'4 8.3
2018-May-06 21:00N 54°14' W 130°29'5 9.2
2018-May-06 20:30N 54°10' W 130°25'4 8.8
2018-May-06 20:00N 54°07' W 130°21'4 8.5
2018-May-06 19:30N 54°04' W 130°16'4 9.0
2018-May-06 19:00N 53°60' W 130°13'4 8.8
2018-May-06 18:30N 53°56' W 130°11'4 8.0
2018-May-06 18:00N 53°53' W 130°06'130 3.0
2018-May-04 22:59N 51°56' W 128°32'4 8.5
2018-May-04 22:30N 51°52' W 128°32'4 8.2
2018-May-04 21:59N 51°48' W 128°28'4 8.4
2018-May-04 21:31N 51°45' W 128°24'4 8.6
2018-May-04 21:00N 51°41' W 128°21'4 8.6
2018-May-04 20:30N 51°37' W 128°18'4 8.8
2018-May-04 20:00N 51°33' W 128°14'4 8.6
2018-May-04 19:30N 51°30' W 128°10'26 8.4
2018-May-04 16:27N 51°08' W 127°48'5 8.9
2018-May-04 15:52N 51°05' W 127°42'3 9.2
2018-May-04 15:30N 51°02' W 127°38'5 9.3
2018-May-04 14:59N 50°59' W 127°32'5 9.5
2018-May-04 14:30N 50°56' W 127°27'5 9.3
2018-May-04 14:00N 50°54' W 127°20'2 4.1
2018-May-04 13:30N 50°54' W 127°17'0 0.1
2018-May-04 12:59N 50°54' W 127°17'0 0.0
2018-May-04 12:23N 50°54' W 127°17'0 0.0
2018-May-04 11:53N 50°54' W 127°17'0 0.1
2018-May-04 11:29N 50°54' W 127°17'0 0.1
2018-May-04 10:59N 50°54' W 127°17'0 0.0
2018-May-04 10:11N 50°54' W 127°17'0 0.2
2018-May-04 09:59N 50°54' W 127°17'0 0.1
2018-May-04 09:29N 50°54' W 127°17'0 0.1
2018-May-04 08:59N 50°54' W 127°17'0 0.0
2018-May-04 08:11N 50°54' W 127°17'0 0.0
2018-May-04 07:59N 50°54' W 127°17'0 0.0
2018-May-04 07:29N 50°54' W 127°17'0 0.0
2018-May-04 06:59N 50°54' W 127°17'0 0.0
2018-May-04 06:23N 50°54' W 127°17'0 0.0
2018-May-04 05:53N 50°54' W 127°17'0 0.0
2018-May-04 05:23N 50°54' W 127°17'0 0.0
2018-May-04 04:47N 50°54' W 127°17'0 0.1
2018-May-04 04:17N 50°54' W 127°17'0 0.1
2018-May-04 03:59N 50°54' W 127°17'0 0.0
2018-May-04 03:29N 50°54' W 127°17'0 0.0
2018-May-04 02:59N 50°54' W 127°17'0 0.0
2018-May-04 02:23N 50°54' W 127°17'0 0.0
2018-May-04 01:53N 50°54' W 127°17'0 0.0
2018-May-04 01:23N 50°54' W 127°17'1 3.0
2018-May-04 00:55N 50°53' W 127°16'81 8.4
2018-May-03 15:23N 50°15' W 125°24'3 8.6
2018-May-03 15:00N 50°12' W 125°23'4 8.1
2018-May-03 14:30N 50°08' W 125°21'3 6.5
2018-May-03 14:00N 50°06' W 125°18'3 4.8
2018-May-03 13:29N 50°04' W 125°15'2 3.6
2018-May-03 12:56N 50°02' W 125°15'0 0.0
2018-May-03 12:29N 50°02' W 125°15'0 0.0
2018-May-03 11:59N 50°02' W 125°15'0 0.0
2018-May-03 11:29N 50°02' W 125°15'0 0.0
2018-May-03 10:59N 50°02' W 125°15'0 0.0
2018-May-03 10:29N 50°02' W 125°15'0 0.0
2018-May-03 09:59N 50°02' W 125°15'0 0.0
2018-May-03 09:29N 50°02' W 125°15'0 0.0
2018-May-03 08:59N 50°02' W 125°15'0 0.0
2018-May-03 08:28N 50°02' W 125°15'0 0.0
2018-May-03 07:58N 50°02' W 125°15'0 0.0
2018-May-03 07:28N 50°02' W 125°15'0 0.0
2018-May-03 06:58N 50°02' W 125°15'0 0.0
2018-May-03 06:28N 50°02' W 125°15'0 0.0
2018-May-03 05:58N 50°02' W 125°15'0 0.0
2018-May-03 05:28N 50°02' W 125°15'0 0.0
2018-May-03 04:58N 50°02' W 125°15'0 0.6
2018-May-03 04:29N 50°02' W 125°14'6 9.4
2018-May-03 03:51N 49°57' W 125°09'2 6.8
2018-May-03 03:30N 49°56' W 125°07'5 8.8
2018-May-03 02:56N 49°52' W 125°01'100 7.6
2018-May-02 13:46N 48°41' W 123°14'16 1.2
2018-May-01 23:58N 48°34' W 122°52'  
Track history (hours):
 
Tides and Currents Weather Stations Pressure Air Temp Water Temp Dewpoint Dewpoint Depression Visibility Wind Speed Wind Dir Waves Ship Positions

Maximo

Owner: OBERTO, STEPHEN J, SEATTLE, WA. More information available from US FCC via Universal Licensing System and Coast Guard Vessel Documentation Center.

Last reported at 2018-May-06 22:44 UTC. Time now 2018-Jun-19 19:51 UTC.
Position N 54°27' W 130°39'.
Warning: this ship's position is 43 days out of date.

Length 21 m.

Type: Pleasure craft. MMSI: 367315610.

Date/timePositionNaut miles runAvg speedWind from/ knotsBaromVisibWave heightAir tempDewpointWater temp
2018-May-06 22:44N 54°27' W 130°39'2 7.9
2018-May-06 22:29N 54°25' W 130°38'4 8.1
2018-May-06 21:59N 54°22' W 130°35'4 8.1
2018-May-06 21:30N 54°18' W 130°33'4 8.3
2018-May-06 21:00N 54°14' W 130°29'5 9.2
2018-May-06 20:30N 54°10' W 130°25'4 8.8
2018-May-06 20:00N 54°07' W 130°21'4 8.5
2018-May-06 19:30N 54°04' W 130°16'4 9.0
2018-May-06 19:00N 53°60' W 130°13'4 8.8
2018-May-06 18:30N 53°56' W 130°11'4 8.0
2018-May-06 18:00N 53°53' W 130°06'130 3.0
2018-May-04 22:59N 51°56' W 128°32'4 8.5
2018-May-04 22:30N 51°52' W 128°32'4 8.2
2018-May-04 21:59N 51°48' W 128°28'4 8.4
2018-May-04 21:31N 51°45' W 128°24'4 8.6
2018-May-04 21:00N 51°41' W 128°21'4 8.6
2018-May-04 20:30N 51°37' W 128°18'4 8.8
2018-May-04 20:00N 51°33' W 128°14'4 8.6
2018-May-04 19:30N 51°30' W 128°10'26 8.4
2018-May-04 16:27N 51°08' W 127°48'5 8.9
2018-May-04 15:52N 51°05' W 127°42'3 9.2
2018-May-04 15:30N 51°02' W 127°38'5 9.3
2018-May-04 14:59N 50°59' W 127°32'5 9.5
2018-May-04 14:30N 50°56' W 127°27'5 9.3
2018-May-04 14:00N 50°54' W 127°20'2 4.1
2018-May-04 13:30N 50°54' W 127°17'0 0.1
2018-May-04 12:59N 50°54' W 127°17'0 0.0
2018-May-04 12:23N 50°54' W 127°17'0 0.0
2018-May-04 11:53N 50°54' W 127°17'0 0.1
2018-May-04 11:29N 50°54' W 127°17'0 0.1
2018-May-04 10:59N 50°54' W 127°17'0 0.0
2018-May-04 10:11N 50°54' W 127°17'0 0.2
2018-May-04 09:59N 50°54' W 127°17'0 0.1
2018-May-04 09:29N 50°54' W 127°17'0 0.1
2018-May-04 08:59N 50°54' W 127°17'0 0.0
2018-May-04 08:11N 50°54' W 127°17'0 0.0
2018-May-04 07:59N 50°54' W 127°17'0 0.0
2018-May-04 07:29N 50°54' W 127°17'0 0.0
2018-May-04 06:59N 50°54' W 127°17'0 0.0
2018-May-04 06:23N 50°54' W 127°17'0 0.0
2018-May-04 05:53N 50°54' W 127°17'0 0.0
2018-May-04 05:23N 50°54' W 127°17'0 0.0
2018-May-04 04:47N 50°54' W 127°17'0 0.1
2018-May-04 04:17N 50°54' W 127°17'0 0.1
2018-May-04 03:59N 50°54' W 127°17'0 0.0
2018-May-04 03:29N 50°54' W 127°17'0 0.0
2018-May-04 02:59N 50°54' W 127°17'0 0.0
2018-May-04 02:23N 50°54' W 127°17'0 0.0
2018-May-04 01:53N 50°54' W 127°17'0 0.0
2018-May-04 01:23N 50°54' W 127°17'1 3.0
2018-May-04 00:55N 50°53' W 127°16'81 8.4
2018-May-03 15:23N 50°15' W 125°24'3 8.6
2018-May-03 15:00N 50°12' W 125°23'4 8.1
2018-May-03 14:30N 50°08' W 125°21'3 6.5
2018-May-03 14:00N 50°06' W 125°18'3 4.8
2018-May-03 13:29N 50°04' W 125°15'2 3.6
2018-May-03 12:56N 50°02' W 125°15'0 0.0
2018-May-03 12:29N 50°02' W 125°15'0 0.0
2018-May-03 11:59N 50°02' W 125°15'0 0.0
2018-May-03 11:29N 50°02' W 125°15'0 0.0
2018-May-03 10:59N 50°02' W 125°15'0 0.0
2018-May-03 10:29N 50°02' W 125°15'0 0.0
2018-May-03 09:59N 50°02' W 125°15'0 0.0
2018-May-03 09:29N 50°02' W 125°15'0 0.0
2018-May-03 08:59N 50°02' W 125°15'0 0.0
2018-May-03 08:28N 50°02' W 125°15'0 0.0
2018-May-03 07:58N 50°02' W 125°15'0 0.0
2018-May-03 07:28N 50°02' W 125°15'0 0.0
2018-May-03 06:58N 50°02' W 125°15'0 0.0
2018-May-03 06:28N 50°02' W 125°15'0 0.0
2018-May-03 05:58N 50°02' W 125°15'0 0.0
2018-May-03 05:28N 50°02' W 125°15'0 0.0
2018-May-03 04:58N 50°02' W 125°15'0 0.6
2018-May-03 04:29N 50°02' W 125°14'6 9.4
2018-May-03 03:51N 49°57' W 125°09'2 6.8
2018-May-03 03:30N 49°56' W 125°07'5 8.8
2018-May-03 02:56N 49°52' W 125°01'100 7.6
2018-May-02 13:46N 48°41' W 123°14'16 1.2
2018-May-01 23:58N 48°34' W 122°52'  

Dump ship's entire track history